Newark, Texas
Current Conditions -  °F | °C
As of 10:53 AM on Friday 24 Oct 2014 (Local Time) from KAFW Reporting Station
Few Clouds Few Clouds  
Wind Chill: 72°   Ceiling: Unl
Heat Index: 72°   Visibility: 10mi
Dew Point: 56°   Wind: 8mph
Humidity: 57%   Direction: 180°S
Pressure: 30.16"   Gusts: NA
Location:  33°N, 97.48°W
Report Text: KAFW 241553Z 18007KT 10SM FEW060 22/13 A3016 RMK AO2 SLP205 T02220133
Loading
Personal Weather Stations






























Interactive Weather Map
Tropical Storm Tracking
New forecast layout! Learn more

10-Day Weather Forecast

Advertisements
Track Severe Weather on mobile